Time;durP1;ratioP1;P1;durP2;ratioP2;P2;SDS_P1;SDS_P2;PMS_P1;PMS_P2;Temp;Humidity;BMP_temperature;BMP_pressure;BME280_temperature;BME280_humidity;BME280_pressure;Samples;Min_cycle;Max_cycle;Signal;HPM_P1;HPM_P2
2023/08/18 00:01:07;;;;;;;17.98;11.00;;;;;;;25.91;57.21;98207.41;4425734;32;20085;-79
2023/08/18 00:03:34;;;;;;;18.48;11.50;;;;;;;25.53;59.23;98211.31;4425350;32;20106;-79
2023/08/18 00:06:01;;;;;;;16.77;10.13;;;;;;;26.14;58.61;98210.28;4425648;32;20810;-79
2023/08/18 00:08:30;;;;;;;16.85;10.60;;;;;;;26.48;57.97;98212.94;4425613;32;20097;-79
2023/08/18 00:10:57;;;;;;;15.02;9.57;;;;;;;26.62;57.39;98208.81;4425302;32;20078;-79
2023/08/18 00:13:24;;;;;;;16.45;9.02;;;;;;;26.32;58.11;98212.84;4425726;32;20094;-79
2023/08/18 00:15:51;;;;;;;16.05;9.65;;;;;;;26.37;57.01;98209.72;4425559;32;20169;-79
2023/08/18 00:18:18;;;;;;;15.20;9.30;;;;;;;25.84;58.19;98209.03;4424985;32;20082;-78
2023/08/18 00:20:45;;;;;;;15.07;9.27;;;;;;;25.64;58.43;98211.03;4425667;32;20129;-78
2023/08/18 00:23:12;;;;;;;15.65;10.25;;;;;;;25.62;58.90;98209.53;4425681;32;20117;-78
2023/08/18 00:25:39;;;;;;;15.10;9.45;;;;;;;25.31;59.99;98212.66;4425179;32;20124;-78
2023/08/18 00:28:06;;;;;;;14.95;8.52;;;;;;;25.01;60.95;98211.25;4425540;32;20180;-78
2023/08/18 00:30:33;;;;;;;17.00;9.80;;;;;;;25.74;58.70;98207.50;4425410;32;20093;-78
2023/08/18 00:33:00;;;;;;;16.12;10.05;;;;;;;25.02;61.54;98212.91;4425163;32;20137;-78
2023/08/18 00:35:27;;;;;;;17.10;9.98;;;;;;;25.27;61.58;98208.66;4425543;32;20097;-78
2023/08/18 00:37:54;;;;;;;16.42;9.45;;;;;;;26.33;58.53;98213.66;4425427;32;20106;-78
2023/08/18 00:40:24;;;;;;;13.88;9.13;;;;;;;25.77;60.10;98212.47;4425195;32;20078;-78
2023/08/18 00:42:52;;;;;;;15.90;9.98;;;;;;;25.49;60.79;98206.47;4425518;32;20145;-78
2023/08/18 00:45:19;;;;;;;15.23;9.45;;;;;;;25.38;61.05;98205.75;4425178;32;20097;-78
2023/08/18 00:47:46;;;;;;;16.77;9.93;;;;;;;25.59;60.41;98208.03;4425389;32;20094;-78
2023/08/18 00:50:14;;;;;;;15.93;9.82;;;;;;;25.57;60.26;98206.53;4425371;32;20102;-78
2023/08/18 00:52:42;;;;;;;16.30;9.80;;;;;;;26.36;57.96;98211.53;4425159;32;20133;-78
2023/08/18 00:55:10;;;;;;;16.58;10.45;;;;;;;26.01;60.12;98201.16;4425313;32;20173;-78
2023/08/18 00:57:38;;;;;;;16.85;10.00;;;;;;;26.20;59.90;98203.56;4425274;32;20429;-78
2023/08/18 01:00:05;;;;;;;17.33;10.55;;;;;;;26.40;60.39;98204.97;4425010;32;20149;-78
2023/08/18 01:02:32;;;;;;;16.23;10.15;;;;;;;25.96;62.26;98209.59;4425343;32;20129;-78
2023/08/18 01:05:02;;;;;;;18.35;11.60;;;;;;;25.88;61.20;98214.81;4411560;32;20120;-78
2023/08/18 01:07:29;;;;;;;21.15;12.73;;;;;;;26.27;58.87;98203.75;4424822;32;20147;-78
2023/08/18 01:09:57;;;;;;;22.98;12.77;;;;;;;25.45;62.54;98205.13;4424798;32;20446;-78
2023/08/18 01:12:40;;;;;;;20.08;12.48;;;;;;;25.54;62.83;98204.22;4425343;32;20105;-79
2023/08/18 01:15:22;;;;;;;21.85;12.82;;;;;;;25.74;63.02;98202.22;4411265;32;20576;-79
2023/08/18 01:17:54;;;;;;;22.13;12.98;;;;;;;26.00;62.00;98202.16;4424969;32;20081;-78
2023/08/18 01:20:23;;;;;;;20.37;12.00;;;;;;;25.75;63.02;98204.69;4424980;32;20143;-78
2023/08/18 01:22:55;;;;;;;19.73;12.25;;;;;;;25.82;63.01;98197.78;4425137;32;20145;-78
2023/08/18 01:25:22;;;;;;;18.70;12.15;;;;;;;25.98;62.68;98193.56;4425190;32;20142;-78
2023/08/18 01:27:50;;;;;;;18.30;11.05;;;;;;;26.47;59.29;98199.84;4424763;32;20146;-78
2023/08/18 01:30:17;;;;;;;18.92;11.50;;;;;;;25.75;60.56;98191.47;4425066;32;20145;-78
2023/08/18 01:32:52;;;;;;;18.40;11.65;;;;;;;25.21;62.50;98190.78;4425109;32;20112;-78
2023/08/18 01:35:21;;;;;;;16.98;11.02;;;;;;;25.70;61.27;98185.81;4424775;32;20097;-78
2023/08/18 01:37:49;;;;;;;18.40;10.45;;;;;;;25.78;60.05;98185.88;4411262;32;20104;-78
2023/08/18 01:40:17;;;;;;;17.40;10.38;;;;;;;25.61;60.08;98195.47;4425061;32;20497;-78
2023/08/18 01:42:45;;;;;;;16.27;10.32;;;;;;;25.52;60.30;98199.09;4410909;32;20766;-78
2023/08/18 01:45:14;;;;;;;15.18;10.30;;;;;;;25.88;58.86;98189.22;4424966;32;20165;-78
2023/08/18 01:47:41;;;;;;;15.43;9.90;;;;;;;26.38;56.93;98191.09;4424920;32;20506;-78
2023/08/18 01:50:09;;;;;;;17.00;10.10;;;;;;;25.99;58.86;98184.63;4424487;32;20120;-78
2023/08/18 01:52:36;;;;;;;16.27;9.50;;;;;;;25.38;60.70;98183.78;4424888;32;20094;-78
2023/08/18 01:55:04;;;;;;;19.95;10.05;;;;;;;25.48;60.20;98191.62;4424903;32;20478;-78
2023/08/18 01:57:30;;;;;;;17.05;10.75;;;;;;;25.57;60.17;98193.31;4424337;32;20149;-78
2023/08/18 01:59:57;;;;;;;17.40;9.65;;;;;;;25.68;59.40;98182.47;4424836;32;20152;-78
2023/08/18 02:02:24;;;;;;;15.50;9.75;;;;;;;25.57;59.17;98191.50;4424505;32;20165;-78
2023/08/18 02:04:54;;;;;;;15.20;9.32;;;;;;;25.50;58.98;98192.28;4424698;32;20101;-78
2023/08/18 02:07:21;;;;;;;15.40;9.23;;;;;;;25.26;60.02;98182.41;4424657;32;20131;-78
2023/08/18 02:09:48;;;;;;;16.55;9.50;;;;;;;25.02;61.20;98186.53;4424465;32;20169;-78
2023/08/18 02:12:15;;;;;;;18.42;9.77;;;;;;;25.31;60.06;98183.59;4424686;32;20105;-78
2023/08/18 02:14:42;;;;;;;15.05;9.52;;;;;;;25.39;59.94;98180.16;4424662;32;20428;-78
2023/08/18 02:17:09;;;;;;;14.90;9.77;;;;;;;24.57;62.43;98173.41;4423934;32;20103;-78
2023/08/18 02:19:36;;;;;;;14.00;8.93;;;;;;;24.90;62.08;98176.31;4424548;32;20431;-78
2023/08/18 02:22:03;;;;;;;17.05;9.30;;;;;;;24.97;62.08;98172.91;4425693;32;20474;-78
2023/08/18 02:24:29;;;;;;;18.75;9.40;;;;;;;24.76;63.24;98175.03;4426066;32;20101;-79
2023/08/18 02:26:56;;;;;;;16.95;9.60;;;;;;;24.91;63.19;98176.16;4412547;32;20418;-78
2023/08/18 02:29:23;;;;;;;17.37;9.23;;;;;;;25.34;61.92;98169.25;4426341;32;20082;-78
2023/08/18 02:31:52;;;;;;;18.33;9.80;;;;;;;25.29;61.53;98166.22;4425845;32;20154;-78
2023/08/18 02:34:19;;;;;;;17.35;9.60;;;;;;;25.11;61.80;98168.09;4426362;32;20107;-78
2023/08/18 02:36:46;;;;;;;15.35;9.30;;;;;;;25.77;59.27;98164.87;4426215;32;20086;-78
2023/08/18 02:39:13;;;;;;;15.27;9.10;;;;;;;25.94;58.96;98163.94;4425930;32;20472;-78
2023/08/18 02:41:39;;;;;;;16.25;9.88;;;;;;;25.35;60.63;98155.06;4426317;32;20124;-78
2023/08/18 02:44:06;;;;;;;17.62;9.25;;;;;;;25.04;61.61;98147.59;4426290;32;20132;-78
2023/08/18 02:46:33;;;;;;;18.83;9.93;;;;;;;24.61;63.58;98151.00;4425824;32;20090;-78
2023/08/18 02:49:00;;;;;;;15.82;9.35;;;;;;;24.72;63.82;98147.31;4426181;32;20081;-78
2023/08/18 02:51:27;;;;;;;19.27;9.77;;;;;;;25.49;61.25;98149.19;4425765;32;20102;-78
2023/08/18 02:53:54;;;;;;;14.73;9.65;;;;;;;25.54;60.50;98151.38;4426140;32;20113;-78
2023/08/18 02:56:21;;;;;;;15.85;8.85;;;;;;;25.46;60.54;98143.41;4426259;32;20086;-78
2023/08/18 02:58:48;;;;;;;16.17;9.15;;;;;;;25.33;60.55;98146.47;4412054;32;20132;-78
2023/08/18 03:01:15;;;;;;;14.20;8.90;;;;;;;25.22;59.97;98150.19;4426090;32;20094;-78
2023/08/18 03:03:42;;;;;;;17.58;10.38;;;;;;;25.71;58.11;98141.72;4426106;32;20424;-78
2023/08/18 03:06:09;;;;;;;17.27;9.93;;;;;;;25.21;59.77;98145.91;4425731;32;20106;-78
2023/08/18 03:08:36;;;;;;;20.50;10.85;;;;;;;25.34;59.57;98151.59;4425962;32;20463;-78
2023/08/18 03:11:04;;;;;;;16.73;9.82;;;;;;;24.87;61.03;98143.13;4412307;32;20133;-78
2023/08/18 03:13:32;;;;;;;15.90;10.15;;;;;;;24.69;62.52;98145.81;4425736;32;20120;-78
2023/08/18 03:15:59;;;;;;;16.35;9.82;;;;;;;25.03;62.36;98148.56;4426043;32;20094;-78
2023/08/18 03:18:26;;;;;;;17.45;9.88;;;;;;;25.54;60.89;98138.16;4425714;32;20116;-78
2023/08/18 03:21:00;;;;;;;18.15;10.25;;;;;;;25.46;60.81;98141.59;4411786;32;20124;-78
2023/08/18 03:23:28;;;;;;;17.55;10.50;;;;;;;25.60;59.87;98140.97;4426130;32;20098;-78
2023/08/18 03:26:03;;;;;;;17.25;10.23;;;;;;;25.57;59.71;98151.88;4425961;32;20136;-78
2023/08/18 03:28:32;;;;;;;16.95;10.88;;;;;;;24.93;61.96;98155.72;4425551;32;20147;-78
2023/08/18 03:31:04;;;;;;;16.40;10.55;;;;;;;25.31;61.34;98151.91;4425859;32;20162;-78
2023/08/18 03:33:31;;;;;;;18.90;10.90;;;;;;;25.46;61.60;98154.78;4425708;32;20093;-78
2023/08/18 03:35:59;;;;;;;18.73;11.07;;;;;;;25.25;62.54;98162.25;4412134;32;20104;-78
2023/08/18 03:38:26;;;;;;;21.05;12.07;;;;;;;24.59;65.62;98162.69;4425797;32;20140;-78
2023/08/18 03:41:04;;;;;;;18.92;12.60;;;;;;;24.48;67.12;98166.38;4425462;32;20126;-78
2023/08/18 03:43:34;;;;;;;18.62;11.52;;;;;;;25.22;65.23;98168.69;4425926;32;20085;-78
2023/08/18 03:46:25;;;;;;;18.90;11.80;;;;;;;25.36;64.94;98162.81;4425893;32;20078;-78
2023/08/18 03:48:52;;;;;;;19.67;11.02;;;;;;;25.48;64.14;98165.19;4425352;32;20086;-78
2023/08/18 03:51:19;;;;;;;20.48;12.05;;;;;;;25.79;62.12;98166.38;4425765;32;20113;-78
2023/08/18 03:53:46;;;;;;;19.25;12.52;;;;;;;25.24;64.27;98169.34;4425851;32;20081;-78
2023/08/18 03:56:14;;;;;;;19.87;11.50;;;;;;;25.47;63.08;98171.47;4425388;32;20102;-78
2023/08/18 03:58:40;;;;;;;19.15;11.48;;;;;;;25.47;62.71;98180.22;4425814;32;20155;-78
2023/08/18 04:01:08;;;;;;;17.50;11.40;;;;;;;26.18;59.48;98171.16;4425639;32;20162;-78
2023/08/18 04:03:38;;;;;;;18.65;11.12;;;;;;;25.99;59.41;98171.41;4425398;32;20098;-78
2023/08/18 04:06:05;;;;;;;18.33;10.60;;;;;;;25.79;58.13;98168.19;4425731;32;20098;-79
2023/08/18 04:08:34;;;;;;;17.95;10.75;;;;;;;25.19;60.27;98168.97;4425630;32;20145;-79
2023/08/18 04:11:00;;;;;;;15.07;9.38;;;;;;;25.21;60.20;98172.31;4425337;32;20364;-78
2023/08/18 04:13:27;;;;;;;15.70;9.90;;;;;;;24.81;60.50;98170.97;4425624;32;20093;-78
2023/08/18 04:15:54;;;;;;;15.82;9.80;;;;;;;25.42;57.71;98174.59;4425346;32;20487;-78
2023/08/18 04:18:21;;;;;;;17.70;10.93;;;;;;;25.72;56.97;98175.91;4425387;32;20086;-78
2023/08/18 04:20:48;;;;;;;16.90;8.60;;;;;;;26.13;55.99;98182.19;4425614;32;20154;-78
2023/08/18 04:23:15;;;;;;;15.10;8.82;;;;;;;25.61;57.33;98174.34;4425424;32;20154;-78
2023/08/18 04:25:43;;;;;;;15.43;9.15;;;;;;;25.49;57.38;98182.69;4425611;32;20376;-78
2023/08/18 04:28:10;;;;;;;14.52;9.30;;;;;;;25.29;58.31;98182.06;4425487;32;20078;-78
2023/08/18 04:30:37;;;;;;;17.35;9.93;;;;;;;25.16;58.79;98177.22;4425152;32;20142;-78
2023/08/18 04:33:04;;;;;;;19.37;8.80;;;;;;;26.02;56.19;98179.03;4425525;32;20097;-78
2023/08/18 04:35:31;;;;;;;15.05;8.43;;;;;;;26.03;56.33;98183.31;4425510;32;20096;-78
2023/08/18 04:37:58;;;;;;;16.45;9.43;;;;;;;25.78;57.01;98180.59;4425142;32;20133;-78
2023/08/18 04:40:25;;;;;;;14.48;8.68;;;;;;;26.16;55.08;98181.91;4425516;32;20157;-78
2023/08/18 04:42:52;;;;;;;17.05;8.90;;;;;;;25.88;56.09;98183.09;4425446;32;20089;-78
2023/08/18 04:45:19;;;;;;;15.80;9.65;;;;;;;25.71;57.00;98179.53;4424292;32;20089;-78
2023/08/18 04:47:47;;;;;;;16.70;9.43;;;;;;;25.42;58.33;98181.69;4425399;32;20161;-78
2023/08/18 04:50:14;;;;;;;14.80;8.82;;;;;;;26.02;57.05;98185.13;4411705;32;20164;-78
2023/08/18 04:52:41;;;;;;;14.60;9.05;;;;;;;26.06;57.40;98178.56;4425060;32;20124;-78
2023/08/18 04:55:08;;;;;;;16.98;9.65;;;;;;;25.76;58.54;98179.91;4425445;32;20094;-78
2023/08/18 04:57:35;;;;;;;15.70;9.32;;;;;;;25.22;61.50;98189.81;4425322;32;20094;-78
2023/08/18 05:00:02;;;;;;;19.12;9.65;;;;;;;26.17;59.43;98180.91;4425049;32;20177;-79
2023/08/18 05:02:29;;;;;;;16.30;9.48;;;;;;;26.34;58.83;98187.06;4425417;32;20172;-79
2023/08/18 05:04:57;;;;;;;16.00;9.73;;;;;;;26.30;59.11;98192.84;4425100;32;20097;-79
2023/08/18 05:07:24;;;;;;;14.95;9.25;;;;;;;26.49;58.86;98197.88;4425458;32;20102;-78
2023/08/18 05:09:51;;;;;;;15.90;9.55;;;;;;;27.18;56.31;98201.91;4425808;32;20129;-78
2023/08/18 05:12:20;;;;;;;15.05;9.77;;;;;;;27.67;54.66;98201.87;4427011;32;20181;-78
2023/08/18 05:14:47;;;;;;;18.17;10.52;;;;;;;27.32;55.52;98201.22;4425359;32;20175;-77
2023/08/18 05:17:14;;;;;;;19.50;10.55;;;;;;;26.99;57.08;98208.34;4426434;32;20100;-78
2023/08/18 05:19:40;;;;;;;17.27;9.70;;;;;;;26.99;57.33;98197.75;4425537;32;20090;-78
2023/08/18 05:22:08;;;;;;;17.17;10.32;;;;;;;27.23;57.51;98204.09;4431967;32;20061;-78
2023/08/18 05:24:34;;;;;;;18.60;11.25;;;;;;;26.69;59.61;98195.75;4433476;32;20093;-78
2023/08/18 05:27:02;;;;;;;18.48;11.02;;;;;;;27.54;58.14;98199.72;4433430;32;20090;-78
2023/08/18 05:29:29;;;;;;;15.98;9.95;;;;;;;27.72;58.08;98206.66;4433641;32;20106;-78
2023/08/18 05:31:56;;;;;;;18.05;9.77;;;;;;;28.66;54.84;98200.44;4432006;32;20098;-79
2023/08/18 05:34:24;;;;;;;20.88;9.98;;;;;;;28.40;56.12;98208.75;4432390;32;20124;-79
2023/08/18 05:36:52;;;;;;;17.48;10.25;;;;;;;28.47;55.47;98205.19;4433390;32;20070;-79
2023/08/18 05:39:19;;;;;;;17.35;10.25;;;;;;;29.20;53.96;98208.34;4433394;32;20066;-79
2023/08/18 05:41:46;;;;;;;16.05;9.82;;;;;;;29.28;53.22;98205.62;4434593;32;20081;-79
2023/08/18 05:44:13;;;;;;;17.23;9.65;;;;;;;29.86;52.07;98206.69;4435663;32;20112;-79
2023/08/18 05:46:40;;;;;;;18.75;10.50;;;;;;;30.34;52.00;98212.47;4435773;32;20150;-79
2023/08/18 05:49:08;;;;;;;17.77;10.75;;;;;;;30.76;50.99;98214.38;4438172;32;20070;-79
2023/08/18 05:51:35;;;;;;;15.65;10.57;;;;;;;31.52;49.56;98220.78;4437139;32;20066;-79
2023/08/18 05:54:03;;;;;;;15.98;10.07;;;;;;;31.71;48.00;98219.28;4430550;32;20083;-79
2023/08/18 05:56:30;;;;;;;15.38;9.75;;;;;;;32.26;46.72;98212.19;4430203;32;20050;-80
2023/08/18 05:58:57;;;;;;;19.65;10.43;;;;;;;32.71;45.84;98208.03;4428963;32;20093;-80
2023/08/18 06:01:25;;;;;;;17.02;10.20;;;;;;;32.57;45.59;98210.87;4428768;32;20097;-81
2023/08/18 06:03:52;;;;;;;16.35;10.27;;;;;;;32.57;45.81;98217.06;4429930;32;20081;-81
2023/08/18 06:06:19;;;;;;;18.17;10.60;;;;;;;32.48;46.34;98210.25;4430134;32;20133;-81
2023/08/18 06:08:46;;;;;;;15.63;9.35;;;;;;;32.25;46.81;98218.56;4430981;32;20132;-80
2023/08/18 06:11:15;;;;;;;16.55;9.75;;;;;;;31.62;48.35;98215.13;4431015;32;20097;-80
2023/08/18 06:13:42;;;;;;;16.60;9.88;;;;;;;33.21;45.31;98215.72;4431701;32;20101;-81
2023/08/18 06:16:08;;;;;;;19.27;11.18;;;;;;;31.97;47.97;98220.47;4427791;32;20105;-80
2023/08/18 06:18:36;;;;;;;15.40;10.15;;;;;;;32.68;46.93;98220.97;4423545;32;20128;-80
2023/08/18 06:21:03;;;;;;;15.02;10.10;;;;;;;32.69;46.47;98225.31;4409546;32;20143;-80
2023/08/18 06:23:34;;;;;;;17.23;10.30;;;;;;;31.98;49.09;98235.47;4423480;32;20100;-81
2023/08/18 06:26:02;;;;;;;16.58;10.07;;;;;;;30.62;51.46;98226.69;4424999;32;20117;-81
2023/08/18 06:28:29;;;;;;;15.52;9.60;;;;;;;30.90;50.67;98231.31;4430705;32;20114;-82
2023/08/18 06:31:06;;;;;;;15.60;9.73;;;;;;;29.28;55.26;98233.03;4427788;32;20098;-78
2023/08/18 06:33:34;;;;;;;16.60;10.18;;;;;;;28.53;57.59;98228.41;4424592;32;20172;-78
2023/08/18 06:36:03;;;;;;;18.08;10.70;;;;;;;29.31;56.56;98230.00;4424478;32;20165;-78
2023/08/18 06:38:30;;;;;;;15.52;10.25;;;;;;;29.21;57.52;98228.59;4425354;32;20133;-78
2023/08/18 06:40:57;;;;;;;17.58;11.15;;;;;;;29.62;55.56;98234.38;4425695;32;20109;-81
2023/08/18 06:43:24;;;;;;;16.58;11.12;;;;;;;29.08;56.37;98230.03;4429529;32;20090;-81
2023/08/18 06:45:51;;;;;;;17.17;10.13;;;;;;;28.56;57.59;98227.22;4429477;32;20089;-80
2023/08/18 06:48:18;;;;;;;19.30;11.05;;;;;;;29.67;56.02;98226.72;4427637;32;20094;-80
2023/08/18 06:50:45;;;;;;;18.50;11.15;;;;;;;30.52;53.37;98231.53;4428395;32;20108;-80
2023/08/18 06:53:12;;;;;;;18.33;11.35;;;;;;;29.41;56.75;98220.94;4429605;32;20150;-80
2023/08/18 06:55:46;;;;;;;17.27;9.55;;;;;;;29.22;57.12;98211.63;4429688;32;20738;-80
2023/08/18 06:58:28;;;;;;;17.02;10.43;;;;;;;30.04;55.04;98212.47;4429366;32;20074;-80
2023/08/18 07:00:55;;;;;;;20.35;11.48;;;;;;;30.43;53.55;98222.00;4428519;32;20078;-80
2023/08/18 07:03:22;;;;;;;16.37;10.30;;;;;;;29.56;55.85;98221.81;4429058;32;20054;-80
2023/08/18 07:05:49;;;;;;;17.87;11.38;;;;;;;30.41;53.83;98238.16;4429725;32;20147;-80
2023/08/18 07:08:16;;;;;;;18.98;11.15;;;;;;;29.80;55.76;98231.38;4418352;32;20167;-81
2023/08/18 07:10:43;;;;;;;17.48;11.50;;;;;;;30.62;52.94;98232.00;4430964;32;20144;-80
2023/08/18 07:13:10;;;;;;;17.08;10.27;;;;;;;30.87;52.45;98237.03;4430073;32;20444;-80
2023/08/18 07:15:37;;;;;;;15.18;10.48;;;;;;;30.93;52.00;98231.75;4432367;32;20678;-80
2023/08/18 07:18:04;;;;;;;18.75;11.02;;;;;;;30.62;52.42;98239.19;4429183;32;20113;-80
2023/08/18 07:20:31;;;;;;;15.10;10.30;;;;;;;30.30;53.89;98237.78;4414727;32;20101;-81
2023/08/18 07:22:58;;;;;;;16.45;10.48;;;;;;;30.57;52.23;98246.91;4428742;32;20131;-81
2023/08/18 07:25:27;;;;;;;19.05;11.32;;;;;;;31.29;50.98;98247.69;4431431;32;20982;-80
2023/08/18 07:27:54;;;;;;;16.48;10.38;;;;;;;30.00;52.66;98251.09;4432038;32;20088;-81
2023/08/18 07:30:22;;;;;;;17.77;10.52;;;;;;;31.06;50.37;98255.06;4432119;32;20109;-80
2023/08/18 07:32:49;;;;;;;17.70;10.05;;;;;;;29.80;54.39;98252.66;4432044;32;20102;-80
2023/08/18 07:35:16;;;;;;;15.68;10.98;;;;;;;29.81;54.66;98257.78;4433299;32;20163;-79
2023/08/18 07:37:43;;;;;;;18.55;10.85;;;;;;;30.51;53.86;98261.78;4431301;32;20181;-80
2023/08/18 07:40:22;;;;;;;18.25;10.05;;;;;;;30.41;54.94;98263.94;4428679;32;20072;-80
2023/08/18 07:42:49;;;;;;;15.32;10.27;;;;;;;30.00;54.81;98261.75;4426502;32;20086;-80
2023/08/18 07:45:16;;;;;;;16.52;9.20;;;;;;;29.89;55.86;98264.88;4425441;32;20090;-80
2023/08/18 07:47:43;;;;;;;18.62;10.70;;;;;;;29.69;55.68;98269.88;4425097;32;20117;-80
2023/08/18 07:50:11;;;;;;;16.40;10.35;;;;;;;29.48;56.23;98270.59;4411167;32;20120;-79
2023/08/18 07:52:38;;;;;;;17.70;10.75;;;;;;;30.48;54.37;98272.81;4424832;32;20099;-79
2023/08/18 07:55:07;;;;;;;17.33;11.32;;;;;;;29.78;56.50;98273.31;4425605;32;20086;-79
2023/08/18 07:57:36;;;;;;;17.58;11.05;;;;;;;29.58;57.37;98276.47;4427387;32;20095;-79
2023/08/18 08:00:19;;;;;;;18.60;11.27;;;;;;;30.07;55.01;98275.97;4428581;32;20143;-79
2023/08/18 08:02:47;;;;;;;19.45;11.10;;;;;;;29.51;58.24;98270.22;4427175;32;20085;-79
2023/08/18 08:05:21;;;;;;;17.50;10.13;;;;;;;29.98;55.54;98273.56;4427435;32;20591;-79
2023/08/18 08:07:49;;;;;;;18.73;12.52;;;;;;;29.80;56.59;98274.75;4427908;32;20456;-78
2023/08/18 08:10:16;;;;;;;18.42;12.00;;;;;;;29.84;56.20;98272.56;4414585;32;20164;-79
2023/08/18 08:12:44;;;;;;;18.15;12.23;;;;;;;29.99;56.66;98273.41;4426712;32;20098;-78
2023/08/18 08:15:13;;;;;;;19.25;12.07;;;;;;;30.11;55.08;98276.47;4426260;32;20082;-78
2023/08/18 08:17:40;;;;;;;20.37;12.13;;;;;;;29.58;56.25;98275.66;4427465;32;20112;-78
2023/08/18 08:20:13;;;;;;;19.35;12.95;;;;;;;29.48;56.30;98269.75;4426888;32;20093;-78
2023/08/18 08:22:41;;;;;;;19.48;11.88;;;;;;;29.15;56.97;98280.63;4416175;32;20093;-78
2023/08/18 08:25:10;;;;;;;18.58;12.10;;;;;;;28.84;58.01;98277.16;4416379;32;20228;-78
2023/08/18 08:27:37;;;;;;;18.37;11.57;;;;;;;30.00;55.09;98275.06;4430351;32;20123;-79
2023/08/18 08:30:08;;;;;;;16.35;10.43;;;;;;;30.23;54.29;98281.13;4430054;32;20104;-78
2023/08/18 08:32:39;;;;;;;18.58;10.75;;;;;;;29.70;54.38;98273.38;4416656;32;20058;-78
2023/08/18 08:35:06;;;;;;;16.33;10.05;;;;;;;29.63;55.22;98273.25;4432351;32;20053;-78
2023/08/18 08:37:33;;;;;;;17.45;10.10;;;;;;;29.49;56.13;98272.25;4429079;32;20155;-78
2023/08/18 08:40:05;;;;;;;16.12;10.07;;;;;;;29.93;54.77;98271.47;4426099;32;20476;-79
2023/08/18 08:42:32;;;;;;;14.45;9.88;;;;;;;31.20;51.80;98278.16;4424961;32;20105;-79
2023/08/18 08:44:59;;;;;;;16.98;10.18;;;;;;;31.45;50.64;98277.75;4428093;32;20108;-78
2023/08/18 08:47:26;;;;;;;17.15;10.32;;;;;;;31.35;50.68;98270.91;4429825;32;20121;-78
2023/08/18 08:50:00;;;;;;;14.20;9.05;;;;;;;31.03;50.82;98264.22;4425769;32;20090;-76
2023/08/18 08:52:34;;;;;;;15.07;8.98;;;;;;;31.87;49.89;98269.69;4412508;32;20161;-78
2023/08/18 08:55:02;;;;;;;22.45;8.65;;;;;;;30.46;50.79;98257.03;4429108;32;20409;-78
2023/08/18 08:57:33;;;;;;;15.75;8.90;;;;;;;31.23;50.51;98264.44;4414649;32;20101;-80
2023/08/18 09:00:00;;;;;;;14.93;8.73;;;;;;;31.17;50.22;98267.88;4411172;32;20136;-79
2023/08/18 09:02:27;;;;;;;14.52;9.02;;;;;;;31.09;50.18;98266.16;4424161;32;20085;-79
2023/08/18 09:05:00;;;;;;;13.18;7.93;;;;;;;31.13;49.64;98263.09;4424463;32;20113;-79
2023/08/18 09:07:28;;;;;;;14.65;9.18;;;;;;;30.30;52.51;98270.53;4424681;32;20094;-79
2023/08/18 09:09:55;;;;;;;14.27;8.85;;;;;;;31.16;50.63;98265.38;4425000;32;20420;-79
2023/08/18 09:12:27;;;;;;;15.15;8.40;;;;;;;31.38;50.69;98267.06;4410162;32;20108;-79
2023/08/18 09:14:58;;;;;;;14.57;7.80;;;;;;;31.55;49.68;98264.91;4424765;32;20078;-79
2023/08/18 09:17:28;;;;;;;13.43;7.82;;;;;;;30.68;50.48;98255.28;4424175;32;20151;-79
2023/08/18 09:19:59;;;;;;;15.55;8.93;;;;;;;29.91;53.21;98255.69;4424557;32;20104;-79
2023/08/18 09:22:29;;;;;;;12.90;8.07;;;;;;;30.58;52.19;98257.38;4423853;32;20140;-79
2023/08/18 09:25:00;;;;;;;16.20;8.88;;;;;;;31.41;49.21;98257.84;4424450;32;20119;-79
2023/08/18 09:27:29;;;;;;;14.30;8.15;;;;;;;30.10;52.16;98253.53;4411067;32;20189;-79
2023/08/18 09:29:58;;;;;;;13.40;8.15;;;;;;;29.54;55.04;98258.38;4424793;32;20338;-79
2023/08/18 09:32:27;;;;;;;17.98;9.18;;;;;;;29.93;54.66;98258.16;4424368;32;20100;-79
2023/08/18 09:34:56;;;;;;;15.57;8.75;;;;;;;30.59;51.94;98266.19;4424868;32;20094;-79
2023/08/18 09:37:31;;;;;;;16.23;8.75;;;;;;;31.48;49.99;98266.72;4423918;32;20106;-79
2023/08/18 09:39:58;;;;;;;15.80;9.00;;;;;;;32.16;47.69;98270.47;4423198;32;20758;-79
2023/08/18 09:42:25;;;;;;;13.77;7.68;;;;;;;31.64;48.46;98269.91;4423869;32;20085;-79
2023/08/18 09:44:53;;;;;;;16.17;7.40;;;;;;;31.29;48.61;98268.19;4423903;32;20120;-80
2023/08/18 09:47:22;;;;;;;15.27;7.72;;;;;;;30.85;50.17;98258.53;4423457;32;20455;-79
2023/08/18 09:49:50;;;;;;;12.60;7.00;;;;;;;30.31;52.08;98253.59;4424063;32;20169;-81
2023/08/18 09:52:19;;;;;;;12.02;7.50;;;;;;;31.21;50.79;98255.00;4415558;32;20098;-82
2023/08/18 09:54:58;;;;;;;12.00;7.40;;;;;;;30.33;51.17;98250.75;4417819;32;20097;-82
2023/08/18 09:58:09;;;;;;;11.63;6.68;;;;;;;30.94;51.58;98246.72;4431903;32;20106;-81
2023/08/18 10:00:39;;;;;;;15.35;7.68;;;;;;;31.18;48.64;98245.53;4418040;32;20786;-82
2023/08/18 10:03:08;;;;;;;13.18;7.05;;;;;;;32.24;47.28;98254.28;4417765;32;20717;-81
2023/08/18 10:05:35;;;;;;;12.15;7.10;;;;;;;32.16;46.20;98254.44;4417318;32;20099;-81
2023/08/18 10:08:03;;;;;;;11.25;6.28;;;;;;;32.21;47.65;98254.66;4417025;32;20125;-82
2023/08/18 10:10:30;;;;;;;10.98;6.95;;;;;;;32.15;45.54;98253.63;4431491;32;20093;-81
2023/08/18 10:12:58;;;;;;;12.25;6.85;;;;;;;32.37;44.66;98246.38;4417024;32;20085;-81
2023/08/18 10:15:25;;;;;;;11.70;6.80;;;;;;;31.73;44.60;98248.44;4416214;32;20157;-81
2023/08/18 10:17:52;;;;;;;11.52;6.40;;;;;;;32.07;44.89;98252.97;4429715;32;20115;-81
2023/08/18 10:20:19;;;;;;;12.45;6.32;;;;;;;32.79;44.57;98255.94;4415788;32;20513;-82
2023/08/18 10:22:46;;;;;;;11.43;7.07;;;;;;;31.97;44.18;98245.31;4415540;32;20146;-81
2023/08/18 10:25:24;;;;;;;11.77;6.57;;;;;;;33.23;42.78;98249.25;4429104;32;20115;-81
2023/08/18 10:27:51;;;;;;;11.88;7.15;;;;;;;32.80;42.04;98236.22;4428819;32;20082;-81
2023/08/18 10:30:26;;;;;;;11.70;6.80;;;;;;;33.03;42.51;98243.88;4428533;32;20149;-81
2023/08/18 10:33:00;;;;;;;15.80;6.53;;;;;;;33.73;40.17;98243.50;4431429;32;20120;-81
2023/08/18 10:35:28;;;;;;;11.70;6.72;;;;;;;33.25;41.37;98241.84;4431503;32;20123;-82
2023/08/18 10:38:05;;;;;;;10.82;6.72;;;;;;;33.02;41.81;98236.06;4430844;32;20081;-82
2023/08/18 10:40:33;;;;;;;11.18;6.40;;;;;;;33.52;41.27;98247.22;4432460;32;20081;-82
2023/08/18 10:43:12;;;;;;;12.25;7.05;;;;;;;34.45;39.05;98240.66;4434338;32;20113;-82
2023/08/18 10:45:42;;;;;;;11.43;6.30;;;;;;;34.66;38.12;98242.16;4434919;32;20066;-81
2023/08/18 10:48:10;;;;;;;13.07;6.70;;;;;;;34.09;39.63;98241.16;4434696;32;20204;-82
2023/08/18 10:50:46;;;;;;;11.82;6.82;;;;;;;32.95;41.22;98237.91;4436475;32;20086;-82
2023/08/18 10:53:13;;;;;;;12.27;6.55;;;;;;;34.67;38.01;98240.31;4434918;32;20081;-82
2023/08/18 10:55:43;;;;;;;10.95;6.93;;;;;;;33.24;40.19;98240.19;4432277;32;20105;-81
2023/08/18 10:58:10;;;;;;;12.30;5.95;;;;;;;33.65;39.67;98241.84;4431311;32;20094;-81
2023/08/18 11:00:40;;;;;;;13.85;7.40;;;;;;;32.12;42.03;98240.69;4429005;32;20093;-81
2023/08/18 11:03:10;;;;;;;11.15;6.70;;;;;;;31.21;44.44;98250.50;4428096;32;20099;-81
2023/08/18 11:05:39;;;;;;;12.10;6.60;;;;;;;33.45;40.54;98244.53;4430935;32;20073;-80
2023/08/18 11:08:10;;;;;;;14.68;7.03;;;;;;;34.15;38.44;98245.69;4418878;32;20117;-82
2023/08/18 11:10:39;;;;;;;12.25;6.85;;;;;;;33.64;39.42;98233.00;4430661;32;20415;-81
2023/08/18 11:13:10;;;;;;;15.32;7.05;;;;;;;32.15;42.81;98228.78;4429404;32;20145;-81
2023/08/18 11:15:49;;;;;;;13.62;7.80;;;;;;;31.63;44.12;98224.78;4430947;32;20134;-82
2023/08/18 11:18:16;;;;;;;11.60;6.87;;;;;;;31.98;44.96;98238.13;4423273;32;174462;-82
2023/08/18 11:20:43;;;;;;;11.05;6.90;;;;;;;33.79;40.44;98235.44;4426639;32;20153;-85
2023/08/18 11:23:10;;;;;;;11.40;7.12;;;;;;;34.62;38.43;98232.09;4426305;32;20387;-84
2023/08/18 11:25:37;;;;;;;22.87;8.13;;;;;;;34.64;38.03;98230.00;4425891;32;20392;-84
2023/08/18 11:28:04;;;;;;;14.87;7.28;;;;;;;35.60;38.85;98246.66;4413766;32;20098;-85